sensor_id;sensor_type;location;lat;lon;timestamp;temperature;humidity
12436;DHT22;6282;51.440;6.938;2023-04-23T00:01:39;11.30;99.90
12436;DHT22;6282;51.440;6.938;2023-04-23T00:04:07;11.30;99.90
12436;DHT22;6282;51.440;6.938;2023-04-23T00:06:34;11.00;99.90
12436;DHT22;6282;51.440;6.938;2023-04-23T00:09:02;10.90;99.90
12436;DHT22;6282;51.440;6.938;2023-04-23T00:11:31;11.00;99.90
12436;DHT22;6282;51.440;6.938;2023-04-23T00:13:58;11.10;99.90
12436;DHT22;6282;51.440;6.938;2023-04-23T00:16:26;11.20;99.90
12436;DHT22;6282;51.440;6.938;2023-04-23T00:18:52;11.20;99.90
12436;DHT22;6282;51.440;6.938;2023-04-23T00:21:19;11.10;99.90
12436;DHT22;6282;51.440;6.938;2023-04-23T00:23:46;10.90;99.90
12436;DHT22;6282;51.440;6.938;2023-04-23T00:26:13;10.90;99.90
12436;DHT22;6282;51.440;6.938;2023-04-23T00:28:44;11.00;99.90
12436;DHT22;6282;51.440;6.938;2023-04-23T00:31:11;10.90;99.90
12436;DHT22;6282;51.440;6.938;2023-04-23T00:33:38;10.70;99.90
12436;DHT22;6282;51.440;6.938;2023-04-23T00:36:05;10.60;99.90
12436;DHT22;6282;51.440;6.938;2023-04-23T00:38:32;10.70;99.90
12436;DHT22;6282;51.440;6.938;2023-04-23T00:40:59;10.90;99.90
12436;DHT22;6282;51.440;6.938;2023-04-23T00:43:26;10.90;99.90
12436;DHT22;6282;51.440;6.938;2023-04-23T00:45:54;10.60;99.90
12436;DHT22;6282;51.440;6.938;2023-04-23T00:48:21;11.00;99.90
12436;DHT22;6282;51.440;6.938;2023-04-23T00:50:48;10.60;99.90
12436;DHT22;6282;51.440;6.938;2023-04-23T00:53:15;10.50;99.90
12436;DHT22;6282;51.440;6.938;2023-04-23T00:55:42;10.50;99.90
12436;DHT22;6282;51.440;6.938;2023-04-23T00:58:09;10.40;99.90
12436;DHT22;6282;51.440;6.938;2023-04-23T01:00:42;10.50;99.90
12436;DHT22;6282;51.440;6.938;2023-04-23T01:03:12;10.30;99.90
12436;DHT22;6282;51.440;6.938;2023-04-23T01:05:39;10.40;99.90
12436;DHT22;6282;51.440;6.938;2023-04-23T01:08:08;10.30;99.90
12436;DHT22;6282;51.440;6.938;2023-04-23T01:10:35;10.40;99.90
12436;DHT22;6282;51.440;6.938;2023-04-23T01:13:03;10.30;99.90
12436;DHT22;6282;51.440;6.938;2023-04-23T01:15:30;10.20;99.90
12436;DHT22;6282;51.440;6.938;2023-04-23T01:17:57;10.20;99.90
12436;DHT22;6282;51.440;6.938;2023-04-23T01:20:25;10.10;99.90
12436;DHT22;6282;51.440;6.938;2023-04-23T01:22:54;10.20;99.90
12436;DHT22;6282;51.440;6.938;2023-04-23T01:25:20;10.40;99.90
12436;DHT22;6282;51.440;6.938;2023-04-23T01:27:47;10.40;99.90
12436;DHT22;6282;51.440;6.938;2023-04-23T01:30:15;10.20;99.90
12436;DHT22;6282;51.440;6.938;2023-04-23T01:32:42;10.10;99.90
12436;DHT22;6282;51.440;6.938;2023-04-23T01:35:10;10.10;99.90
12436;DHT22;6282;51.440;6.938;2023-04-23T01:37:37;10.20;99.90
12436;DHT22;6282;51.440;6.938;2023-04-23T01:40:07;10.10;99.90
12436;DHT22;6282;51.440;6.938;2023-04-23T01:42:34;10.10;99.90
12436;DHT22;6282;51.440;6.938;2023-04-23T01:45:01;10.10;99.90
12436;DHT22;6282;51.440;6.938;2023-04-23T01:47:28;10.30;99.90
12436;DHT22;6282;51.440;6.938;2023-04-23T01:49:55;10.20;99.90
12436;DHT22;6282;51.440;6.938;2023-04-23T01:52:22;10.10;99.90
12436;DHT22;6282;51.440;6.938;2023-04-23T01:54:49;10.10;99.90
12436;DHT22;6282;51.440;6.938;2023-04-23T01:57:17;10.10;99.90
12436;DHT22;6282;51.440;6.938;2023-04-23T01:59:48;10.30;99.90
12436;DHT22;6282;51.440;6.938;2023-04-23T02:02:15;10.10;99.90
12436;DHT22;6282;51.440;6.938;2023-04-23T02:04:43;10.00;99.90
12436;DHT22;6282;51.440;6.938;2023-04-23T02:07:10;10.10;99.90
12436;DHT22;6282;51.440;6.938;2023-04-23T02:09:37;10.30;99.90
12436;DHT22;6282;51.440;6.938;2023-04-23T02:12:04;10.00;99.90
12436;DHT22;6282;51.440;6.938;2023-04-23T02:14:32;10.10;99.90
12436;DHT22;6282;51.440;6.938;2023-04-23T02:16:59;10.20;99.90
12436;DHT22;6282;51.440;6.938;2023-04-23T02:19:27;10.20;99.90
12436;DHT22;6282;51.440;6.938;2023-04-23T02:21:56;10.20;99.90
12436;DHT22;6282;51.440;6.938;2023-04-23T02:24:22;10.20;99.90
12436;DHT22;6282;51.440;6.938;2023-04-23T02:26:49;9.90;99.90
12436;DHT22;6282;51.440;6.938;2023-04-23T02:29:16;9.90;99.90
12436;DHT22;6282;51.440;6.938;2023-04-23T02:31:45;10.00;99.90
12436;DHT22;6282;51.440;6.938;2023-04-23T02:34:11;9.70;99.90
12436;DHT22;6282;51.440;6.938;2023-04-23T02:36:38;9.70;99.90
12436;DHT22;6282;51.440;6.938;2023-04-23T02:39:05;9.70;99.90
12436;DHT22;6282;51.440;6.938;2023-04-23T02:41:32;9.70;99.90
12436;DHT22;6282;51.440;6.938;2023-04-23T02:43:59;9.80;99.90
12436;DHT22;6282;51.440;6.938;2023-04-23T02:46:25;9.60;99.90
12436;DHT22;6282;51.440;6.938;2023-04-23T02:48:54;9.70;99.90
12436;DHT22;6282;51.440;6.938;2023-04-23T02:51:20;9.50;99.90
12436;DHT22;6282;51.440;6.938;2023-04-23T02:53:47;9.70;99.90
12436;DHT22;6282;51.440;6.938;2023-04-23T02:56:14;9.60;99.90
12436;DHT22;6282;51.440;6.938;2023-04-23T02:58:41;9.70;99.90
12436;DHT22;6282;51.440;6.938;2023-04-23T03:01:08;9.80;99.90
12436;DHT22;6282;51.440;6.938;2023-04-23T03:03:35;9.60;99.90
12436;DHT22;6282;51.440;6.938;2023-04-23T03:06:03;10.00;99.90
12436;DHT22;6282;51.440;6.938;2023-04-23T03:08:31;9.80;99.90
12436;DHT22;6282;51.440;6.938;2023-04-23T03:10:58;9.80;99.90
12436;DHT22;6282;51.440;6.938;2023-04-23T03:13:25;9.80;99.90
12436;DHT22;6282;51.440;6.938;2023-04-23T03:15:53;9.80;99.90
12436;DHT22;6282;51.440;6.938;2023-04-23T03:18:20;9.70;99.90
12436;DHT22;6282;51.440;6.938;2023-04-23T03:20:47;9.80;99.90
12436;DHT22;6282;51.440;6.938;2023-04-23T03:23:15;9.80;99.90
12436;DHT22;6282;51.440;6.938;2023-04-23T03:25:42;9.80;99.90
12436;DHT22;6282;51.440;6.938;2023-04-23T03:28:09;9.80;99.90
12436;DHT22;6282;51.440;6.938;2023-04-23T03:30:36;9.80;99.90
12436;DHT22;6282;51.440;6.938;2023-04-23T03:33:03;9.80;99.90
12436;DHT22;6282;51.440;6.938;2023-04-23T03:35:30;9.90;99.90
12436;DHT22;6282;51.440;6.938;2023-04-23T03:37:56;9.90;99.90
12436;DHT22;6282;51.440;6.938;2023-04-23T03:40:25;9.90;99.90
12436;DHT22;6282;51.440;6.938;2023-04-23T03:42:51;9.90;99.90
12436;DHT22;6282;51.440;6.938;2023-04-23T03:45:18;10.00;99.90
12436;DHT22;6282;51.440;6.938;2023-04-23T03:47:45;10.00;99.90
12436;DHT22;6282;51.440;6.938;2023-04-23T03:50:12;10.00;99.90
12436;DHT22;6282;51.440;6.938;2023-04-23T03:52:39;10.10;99.90
12436;DHT22;6282;51.440;6.938;2023-04-23T03:55:07;10.20;99.90
12436;DHT22;6282;51.440;6.938;2023-04-23T03:57:35;10.20;99.90
12436;DHT22;6282;51.440;6.938;2023-04-23T04:00:03;10.10;99.90
12436;DHT22;6282;51.440;6.938;2023-04-23T04:02:32;10.10;99.90
12436;DHT22;6282;51.440;6.938;2023-04-23T04:04:59;10.10;99.90
12436;DHT22;6282;51.440;6.938;2023-04-23T04:07:26;10.10;99.90
12436;DHT22;6282;51.440;6.938;2023-04-23T04:09:53;10.00;99.90
12436;DHT22;6282;51.440;6.938;2023-04-23T04:12:20;10.10;99.90
12436;DHT22;6282;51.440;6.938;2023-04-23T04:14:48;10.10;99.90
12436;DHT22;6282;51.440;6.938;2023-04-23T04:17:15;10.00;99.90
12436;DHT22;6282;51.440;6.938;2023-04-23T04:19:42;10.10;99.90
12436;DHT22;6282;51.440;6.938;2023-04-23T04:22:09;10.00;99.90
12436;DHT22;6282;51.440;6.938;2023-04-23T04:24:36;10.00;99.90
12436;DHT22;6282;51.440;6.938;2023-04-23T04:27:03;10.10;99.90
12436;DHT22;6282;51.440;6.938;2023-04-23T04:29:30;10.00;99.90
12436;DHT22;6282;51.440;6.938;2023-04-23T04:31:59;10.20;99.90
12436;DHT22;6282;51.440;6.938;2023-04-23T04:34:27;10.10;99.90
12436;DHT22;6282;51.440;6.938;2023-04-23T04:36:53;10.10;99.90
12436;DHT22;6282;51.440;6.938;2023-04-23T04:39:20;10.20;99.90
12436;DHT22;6282;51.440;6.938;2023-04-23T04:41:47;10.20;99.90
12436;DHT22;6282;51.440;6.938;2023-04-23T04:44:14;10.30;99.90
12436;DHT22;6282;51.440;6.938;2023-04-23T04:46:41;10.20;99.90
12436;DHT22;6282;51.440;6.938;2023-04-23T04:49:10;10.30;99.90
12436;DHT22;6282;51.440;6.938;2023-04-23T04:51:38;10.30;99.90
12436;DHT22;6282;51.440;6.938;2023-04-23T04:54:05;10.40;99.90
12436;DHT22;6282;51.440;6.938;2023-04-23T04:56:32;10.40;99.90
12436;DHT22;6282;51.440;6.938;2023-04-23T04:58:59;10.30;99.90
12436;DHT22;6282;51.440;6.938;2023-04-23T05:01:26;10.40;99.90
12436;DHT22;6282;51.440;6.938;2023-04-23T05:03:54;10.40;99.90
12436;DHT22;6282;51.440;6.938;2023-04-23T05:06:22;10.40;99.90
12436;DHT22;6282;51.440;6.938;2023-04-23T05:08:49;10.50;99.90
12436;DHT22;6282;51.440;6.938;2023-04-23T05:11:17;10.50;99.90
12436;DHT22;6282;51.440;6.938;2023-04-23T05:13:44;10.50;99.90
12436;DHT22;6282;51.440;6.938;2023-04-23T05:16:11;10.60;99.90
12436;DHT22;6282;51.440;6.938;2023-04-23T05:18:38;10.70;99.90
12436;DHT22;6282;51.440;6.938;2023-04-23T05:21:06;10.70;99.90
12436;DHT22;6282;51.440;6.938;2023-04-23T05:23:34;11.00;99.90
12436;DHT22;6282;51.440;6.938;2023-04-23T05:26:02;11.10;99.90
12436;DHT22;6282;51.440;6.938;2023-04-23T05:28:29;11.30;99.90
12436;DHT22;6282;51.440;6.938;2023-04-23T05:30:56;11.40;99.90
12436;DHT22;6282;51.440;6.938;2023-04-23T05:33:23;11.50;99.90
12436;DHT22;6282;51.440;6.938;2023-04-23T05:35:50;11.60;99.90
12436;DHT22;6282;51.440;6.938;2023-04-23T05:38:17;11.80;99.90
12436;DHT22;6282;51.440;6.938;2023-04-23T05:40:45;11.60;99.90
12436;DHT22;6282;51.440;6.938;2023-04-23T05:43:12;11.60;99.90
12436;DHT22;6282;51.440;6.938;2023-04-23T05:45:39;11.60;99.90
12436;DHT22;6282;51.440;6.938;2023-04-23T05:48:06;11.60;99.90
12436;DHT22;6282;51.440;6.938;2023-04-23T05:50:33;11.50;99.90
12436;DHT22;6282;51.440;6.938;2023-04-23T05:53:00;11.60;99.90
12436;DHT22;6282;51.440;6.938;2023-04-23T05:55:27;11.60;99.90
12436;DHT22;6282;51.440;6.938;2023-04-23T05:57:55;11.60;99.90
12436;DHT22;6282;51.440;6.938;2023-04-23T06:00:22;11.80;99.90
12436;DHT22;6282;51.440;6.938;2023-04-23T06:02:49;11.70;99.90
12436;DHT22;6282;51.440;6.938;2023-04-23T06:05:16;11.60;99.90
12436;DHT22;6282;51.440;6.938;2023-04-23T06:07:43;11.60;99.90
12436;DHT22;6282;51.440;6.938;2023-04-23T06:10:10;11.60;99.90
12436;DHT22;6282;51.440;6.938;2023-04-23T06:12:37;11.60;99.90
12436;DHT22;6282;51.440;6.938;2023-04-23T06:15:08;11.50;99.90
12436;DHT22;6282;51.440;6.938;2023-04-23T06:17:36;11.50;99.90
12436;DHT22;6282;51.440;6.938;2023-04-23T06:20:03;11.50;99.90
12436;DHT22;6282;51.440;6.938;2023-04-23T06:22:30;11.60;99.90
12436;DHT22;6282;51.440;6.938;2023-04-23T06:24:57;11.60;99.90
12436;DHT22;6282;51.440;6.938;2023-04-23T06:27:24;11.70;99.90
12436;DHT22;6282;51.440;6.938;2023-04-23T06:29:51;11.80;99.90
12436;DHT22;6282;51.440;6.938;2023-04-23T06:32:20;11.90;99.90
12436;DHT22;6282;51.440;6.938;2023-04-23T06:34:48;12.00;99.90
12436;DHT22;6282;51.440;6.938;2023-04-23T06:37:14;12.00;99.90
12436;DHT22;6282;51.440;6.938;2023-04-23T06:39:41;11.90;99.90
12436;DHT22;6282;51.440;6.938;2023-04-23T06:42:08;12.10;99.90
12436;DHT22;6282;51.440;6.938;2023-04-23T06:44:35;12.20;99.90
12436;DHT22;6282;51.440;6.938;2023-04-23T06:47:02;12.30;99.90
12436;DHT22;6282;51.440;6.938;2023-04-23T06:49:30;12.40;99.90
12436;DHT22;6282;51.440;6.938;2023-04-23T06:51:57;12.40;99.90
12436;DHT22;6282;51.440;6.938;2023-04-23T06:54:23;12.60;99.90
12436;DHT22;6282;51.440;6.938;2023-04-23T06:56:50;12.60;99.90
12436;DHT22;6282;51.440;6.938;2023-04-23T06:59:17;12.60;99.90
12436;DHT22;6282;51.440;6.938;2023-04-23T07:01:45;12.70;99.90
12436;DHT22;6282;51.440;6.938;2023-04-23T07:04:11;12.70;99.90
12436;DHT22;6282;51.440;6.938;2023-04-23T07:06:40;13.10;99.90
12436;DHT22;6282;51.440;6.938;2023-04-23T07:09:06;13.20;99.90
12436;DHT22;6282;51.440;6.938;2023-04-23T07:11:33;13.20;99.90
12436;DHT22;6282;51.440;6.938;2023-04-23T07:14:01;13.30;99.90
12436;DHT22;6282;51.440;6.938;2023-04-23T07:16:28;14.70;99.90
12436;DHT22;6282;51.440;6.938;2023-04-23T07:18:58;15.40;99.90
12436;DHT22;6282;51.440;6.938;2023-04-23T07:21:25;16.20;99.90
12436;DHT22;6282;51.440;6.938;2023-04-23T07:23:55;16.70;99.90
12436;DHT22;6282;51.440;6.938;2023-04-23T07:26:22;17.00;99.90
12436;DHT22;6282;51.440;6.938;2023-04-23T07:28:49;16.80;99.90
12436;DHT22;6282;51.440;6.938;2023-04-23T07:31:16;17.40;99.90
12436;DHT22;6282;51.440;6.938;2023-04-23T07:33:44;18.70;99.90
12436;DHT22;6282;51.440;6.938;2023-04-23T07:36:11;18.20;99.90
12436;DHT22;6282;51.440;6.938;2023-04-23T07:38:37;17.60;99.90
12436;DHT22;6282;51.440;6.938;2023-04-23T07:41:06;17.30;99.90
12436;DHT22;6282;51.440;6.938;2023-04-23T07:43:33;18.20;99.90
12436;DHT22;6282;51.440;6.938;2023-04-23T07:45:59;18.20;99.90
12436;DHT22;6282;51.440;6.938;2023-04-23T07:48:26;18.00;99.90
12436;DHT22;6282;51.440;6.938;2023-04-23T07:50:53;17.00;99.90
12436;DHT22;6282;51.440;6.938;2023-04-23T07:53:20;17.40;99.90
12436;DHT22;6282;51.440;6.938;2023-04-23T07:55:47;17.30;99.90
12436;DHT22;6282;51.440;6.938;2023-04-23T07:58:15;17.50;99.90
12436;DHT22;6282;51.440;6.938;2023-04-23T08:00:42;18.40;99.90
12436;DHT22;6282;51.440;6.938;2023-04-23T08:03:09;18.40;99.90
12436;DHT22;6282;51.440;6.938;2023-04-23T08:05:35;18.30;99.90
12436;DHT22;6282;51.440;6.938;2023-04-23T08:08:03;18.30;99.90
12436;DHT22;6282;51.440;6.938;2023-04-23T08:10:30;18.50;99.90
12436;DHT22;6282;51.440;6.938;2023-04-23T08:12:58;19.10;99.90
12436;DHT22;6282;51.440;6.938;2023-04-23T08:15:26;19.40;99.90
12436;DHT22;6282;51.440;6.938;2023-04-23T08:17:53;19.00;99.90
12436;DHT22;6282;51.440;6.938;2023-04-23T08:20:20;19.10;99.90
12436;DHT22;6282;51.440;6.938;2023-04-23T08:22:47;19.30;99.90
12436;DHT22;6282;51.440;6.938;2023-04-23T08:25:14;18.30;99.90
12436;DHT22;6282;51.440;6.938;2023-04-23T08:27:41;17.70;99.90
12436;DHT22;6282;51.440;6.938;2023-04-23T08:30:08;17.60;99.90
12436;DHT22;6282;51.440;6.938;2023-04-23T08:32:38;18.30;99.90
12436;DHT22;6282;51.440;6.938;2023-04-23T08:35:05;18.20;99.90
12436;DHT22;6282;51.440;6.938;2023-04-23T08:37:32;18.90;99.90
12436;DHT22;6282;51.440;6.938;2023-04-23T08:40:00;19.10;99.90
12436;DHT22;6282;51.440;6.938;2023-04-23T08:42:36;18.70;99.90
12436;DHT22;6282;51.440;6.938;2023-04-23T08:45:03;18.40;99.90
12436;DHT22;6282;51.440;6.938;2023-04-23T08:47:31;18.60;99.90
12436;DHT22;6282;51.440;6.938;2023-04-23T08:49:59;19.10;99.90
12436;DHT22;6282;51.440;6.938;2023-04-23T08:52:31;19.40;99.90
12436;DHT22;6282;51.440;6.938;2023-04-23T08:55:00;19.70;99.90
12436;DHT22;6282;51.440;6.938;2023-04-23T08:57:27;20.00;99.90
12436;DHT22;6282;51.440;6.938;2023-04-23T08:59:54;18.80;99.90
12436;DHT22;6282;51.440;6.938;2023-04-23T09:02:22;19.20;99.90
12436;DHT22;6282;51.440;6.938;2023-04-23T09:04:49;20.00;99.90
12436;DHT22;6282;51.440;6.938;2023-04-23T09:07:20;19.50;99.90
12436;DHT22;6282;51.440;6.938;2023-04-23T09:09:47;19.90;99.90
12436;DHT22;6282;51.440;6.938;2023-04-23T09:12:14;19.70;99.90
12436;DHT22;6282;51.440;6.938;2023-04-23T09:14:41;18.90;99.90
12436;DHT22;6282;51.440;6.938;2023-04-23T09:17:07;18.70;99.90
12436;DHT22;6282;51.440;6.938;2023-04-23T09:19:35;18.70;99.90
12436;DHT22;6282;51.440;6.938;2023-04-23T09:22:03;18.60;99.90
12436;DHT22;6282;51.440;6.938;2023-04-23T09:24:33;19.20;99.90
12436;DHT22;6282;51.440;6.938;2023-04-23T09:27:00;17.70;99.90
12436;DHT22;6282;51.440;6.938;2023-04-23T09:29:29;17.20;99.90
12436;DHT22;6282;51.440;6.938;2023-04-23T09:32:06;17.50;99.90
12436;DHT22;6282;51.440;6.938;2023-04-23T09:34:34;19.10;99.90
12436;DHT22;6282;51.440;6.938;2023-04-23T09:37:03;19.30;99.90
12436;DHT22;6282;51.440;6.938;2023-04-23T09:39:32;19.60;99.90
12436;DHT22;6282;51.440;6.938;2023-04-23T09:42:02;18.40;99.90
12436;DHT22;6282;51.440;6.938;2023-04-23T09:44:31;17.20;99.90
12436;DHT22;6282;51.440;6.938;2023-04-23T09:47:05;18.10;99.90
12436;DHT22;6282;51.440;6.938;2023-04-23T09:49:44;18.00;99.90
12436;DHT22;6282;51.440;6.938;2023-04-23T09:52:13;18.80;99.90
12436;DHT22;6282;51.440;6.938;2023-04-23T09:54:41;18.30;99.90
12436;DHT22;6282;51.440;6.938;2023-04-23T09:57:10;17.70;99.90
12436;DHT22;6282;51.440;6.938;2023-04-23T09:59:37;17.50;99.90
12436;DHT22;6282;51.440;6.938;2023-04-23T10:02:06;17.50;99.90
12436;DHT22;6282;51.440;6.938;2023-04-23T10:04:34;17.10;99.90
12436;DHT22;6282;51.440;6.938;2023-04-23T10:07:02;17.30;99.90
12436;DHT22;6282;51.440;6.938;2023-04-23T10:09:33;17.60;99.90
12436;DHT22;6282;51.440;6.938;2023-04-23T10:12:02;17.50;99.90
12436;DHT22;6282;51.440;6.938;2023-04-23T10:14:29;17.60;99.90
12436;DHT22;6282;51.440;6.938;2023-04-23T10:16:57;18.10;99.90
12436;DHT22;6282;51.440;6.938;2023-04-23T10:19:25;18.10;99.90
12436;DHT22;6282;51.440;6.938;2023-04-23T10:21:55;17.50;99.90
12436;DHT22;6282;51.440;6.938;2023-04-23T10:24:26;17.20;99.90
12436;DHT22;6282;51.440;6.938;2023-04-23T10:26:57;17.50;99.90
12436;DHT22;6282;51.440;6.938;2023-04-23T10:29:27;17.30;99.90
12436;DHT22;6282;51.440;6.938;2023-04-23T10:31:57;17.50;99.90
12436;DHT22;6282;51.440;6.938;2023-04-23T10:34:25;17.30;99.90
12436;DHT22;6282;51.440;6.938;2023-04-23T10:36:54;17.30;99.90
12436;DHT22;6282;51.440;6.938;2023-04-23T10:39:22;17.20;99.90
12436;DHT22;6282;51.440;6.938;2023-04-23T10:41:50;17.30;99.90
12436;DHT22;6282;51.440;6.938;2023-04-23T10:44:19;17.50;99.90
12436;DHT22;6282;51.440;6.938;2023-04-23T10:46:54;17.40;99.90
12436;DHT22;6282;51.440;6.938;2023-04-23T10:49:22;18.00;99.90
12436;DHT22;6282;51.440;6.938;2023-04-23T10:51:57;17.40;99.90
12436;DHT22;6282;51.440;6.938;2023-04-23T10:54:28;17.40;99.90
12436;DHT22;6282;51.440;6.938;2023-04-23T10:57:00;17.30;99.90
12436;DHT22;6282;51.440;6.938;2023-04-23T10:59:28;16.90;99.90
12436;DHT22;6282;51.440;6.938;2023-04-23T11:01:58;16.80;99.90
12436;DHT22;6282;51.440;6.938;2023-04-23T11:04:32;16.80;99.90
12436;DHT22;6282;51.440;6.938;2023-04-23T11:07:04;16.70;99.90
12436;DHT22;6282;51.440;6.938;2023-04-23T11:09:38;16.60;99.90
12436;DHT22;6282;51.440;6.938;2023-04-23T11:12:08;16.30;99.90
12436;DHT22;6282;51.440;6.938;2023-04-23T11:14:41;15.70;99.90
12436;DHT22;6282;51.440;6.938;2023-04-23T11:17:12;15.50;99.90
12436;DHT22;6282;51.440;6.938;2023-04-23T11:19:39;15.30;99.90
12436;DHT22;6282;51.440;6.938;2023-04-23T11:22:12;15.00;99.90
12436;DHT22;6282;51.440;6.938;2023-04-23T11:24:40;14.50;99.90
12436;DHT22;6282;51.440;6.938;2023-04-23T11:27:10;14.10;99.90
12436;DHT22;6282;51.440;6.938;2023-04-23T11:29:39;14.40;99.90
12436;DHT22;6282;51.440;6.938;2023-04-23T11:32:07;14.20;99.90
12436;DHT22;6282;51.440;6.938;2023-04-23T11:34:38;14.10;99.90
12436;DHT22;6282;51.440;6.938;2023-04-23T11:37:05;14.20;99.90
12436;DHT22;6282;51.440;6.938;2023-04-23T11:39:35;14.50;99.90
12436;DHT22;6282;51.440;6.938;2023-04-23T11:42:02;14.40;99.90
12436;DHT22;6282;51.440;6.938;2023-04-23T11:44:29;14.50;99.90
12436;DHT22;6282;51.440;6.938;2023-04-23T11:46:59;14.80;99.90
12436;DHT22;6282;51.440;6.938;2023-04-23T11:49:27;15.20;99.90
12436;DHT22;6282;51.440;6.938;2023-04-23T11:51:58;15.40;99.90
12436;DHT22;6282;51.440;6.938;2023-04-23T11:54:26;15.80;99.90
12436;DHT22;6282;51.440;6.938;2023-04-23T11:56:54;16.20;99.90
12436;DHT22;6282;51.440;6.938;2023-04-23T11:59:22;16.20;99.90
12436;DHT22;6282;51.440;6.938;2023-04-23T12:01:52;16.50;99.90
12436;DHT22;6282;51.440;6.938;2023-04-23T12:04:20;16.80;99.90
12436;DHT22;6282;51.440;6.938;2023-04-23T12:06:48;16.90;99.90
12436;DHT22;6282;51.440;6.938;2023-04-23T12:09:18;17.10;99.90
12436;DHT22;6282;51.440;6.938;2023-04-23T12:11:45;17.50;99.90
12436;DHT22;6282;51.440;6.938;2023-04-23T12:14:13;17.50;99.90
12436;DHT22;6282;51.440;6.938;2023-04-23T12:16:41;17.70;99.90
12436;DHT22;6282;51.440;6.938;2023-04-23T12:19:08;17.80;99.90
12436;DHT22;6282;51.440;6.938;2023-04-23T12:21:47;17.30;99.90
12436;DHT22;6282;51.440;6.938;2023-04-23T12:24:14;16.90;99.90
12436;DHT22;6282;51.440;6.938;2023-04-23T12:26:42;17.00;99.90
12436;DHT22;6282;51.440;6.938;2023-04-23T12:29:12;16.90;99.90
12436;DHT22;6282;51.440;6.938;2023-04-23T12:31:39;16.90;99.90
12436;DHT22;6282;51.440;6.938;2023-04-23T12:34:09;17.00;99.90
12436;DHT22;6282;51.440;6.938;2023-04-23T12:36:37;17.10;99.90
12436;DHT22;6282;51.440;6.938;2023-04-23T12:39:19;17.00;99.90
12436;DHT22;6282;51.440;6.938;2023-04-23T12:41:48;17.30;99.90
12436;DHT22;6282;51.440;6.938;2023-04-23T12:44:15;17.30;99.90
12436;DHT22;6282;51.440;6.938;2023-04-23T12:46:42;17.70;99.90
12436;DHT22;6282;51.440;6.938;2023-04-23T12:49:09;17.50;99.90
12436;DHT22;6282;51.440;6.938;2023-04-23T12:51:36;17.40;99.90
12436;DHT22;6282;51.440;6.938;2023-04-23T12:54:03;17.90;99.90
12436;DHT22;6282;51.440;6.938;2023-04-23T12:56:30;17.80;99.90
12436;DHT22;6282;51.440;6.938;2023-04-23T12:58:58;18.00;99.90
12436;DHT22;6282;51.440;6.938;2023-04-23T13:01:26;17.90;99.90
12436;DHT22;6282;51.440;6.938;2023-04-23T13:03:53;17.90;99.90
12436;DHT22;6282;51.440;6.938;2023-04-23T13:06:21;17.70;99.90
12436;DHT22;6282;51.440;6.938;2023-04-23T13:08:48;17.70;99.90
12436;DHT22;6282;51.440;6.938;2023-04-23T13:11:15;17.80;99.90
12436;DHT22;6282;51.440;6.938;2023-04-23T13:13:42;17.90;99.90
12436;DHT22;6282;51.440;6.938;2023-04-23T13:16:10;18.00;99.90
12436;DHT22;6282;51.440;6.938;2023-04-23T13:18:37;17.60;99.90
12436;DHT22;6282;51.440;6.938;2023-04-23T13:21:04;17.30;99.90
12436;DHT22;6282;51.440;6.938;2023-04-23T13:23:31;17.80;99.90
12436;DHT22;6282;51.440;6.938;2023-04-23T13:25:57;17.90;99.90
12436;DHT22;6282;51.440;6.938;2023-04-23T13:28:24;17.90;99.90
12436;DHT22;6282;51.440;6.938;2023-04-23T13:30:51;18.10;99.90
12436;DHT22;6282;51.440;6.938;2023-04-23T13:33:19;18.30;99.90
12436;DHT22;6282;51.440;6.938;2023-04-23T13:35:46;18.30;99.90
12436;DHT22;6282;51.440;6.938;2023-04-23T13:38:13;18.00;99.90
12436;DHT22;6282;51.440;6.938;2023-04-23T13:40:40;17.60;99.90
12436;DHT22;6282;51.440;6.938;2023-04-23T13:43:07;17.70;99.90
12436;DHT22;6282;51.440;6.938;2023-04-23T13:45:34;17.70;99.90
12436;DHT22;6282;51.440;6.938;2023-04-23T13:48:01;17.70;99.90
12436;DHT22;6282;51.440;6.938;2023-04-23T13:50:30;18.10;99.90
12436;DHT22;6282;51.440;6.938;2023-04-23T13:52:57;18.10;99.90
12436;DHT22;6282;51.440;6.938;2023-04-23T13:55:24;18.40;99.90
12436;DHT22;6282;51.440;6.938;2023-04-23T13:57:52;18.60;99.90
12436;DHT22;6282;51.440;6.938;2023-04-23T14:00:22;18.70;99.90
12436;DHT22;6282;51.440;6.938;2023-04-23T14:02:50;18.40;99.90
12436;DHT22;6282;51.440;6.938;2023-04-23T14:05:16;18.00;99.90
12436;DHT22;6282;51.440;6.938;2023-04-23T14:07:45;18.00;99.90
12436;DHT22;6282;51.440;6.938;2023-04-23T14:10:12;17.90;99.90
12436;DHT22;6282;51.440;6.938;2023-04-23T14:12:40;18.00;99.90
12436;DHT22;6282;51.440;6.938;2023-04-23T14:15:08;18.10;99.90
12436;DHT22;6282;51.440;6.938;2023-04-23T14:17:36;18.10;99.90
12436;DHT22;6282;51.440;6.938;2023-04-23T14:20:04;18.20;99.90
12436;DHT22;6282;51.440;6.938;2023-04-23T14:22:31;18.10;99.90
12436;DHT22;6282;51.440;6.938;2023-04-23T14:25:03;17.90;99.90
12436;DHT22;6282;51.440;6.938;2023-04-23T14:27:38;17.90;99.90
12436;DHT22;6282;51.440;6.938;2023-04-23T14:30:13;18.00;99.90
12436;DHT22;6282;51.440;6.938;2023-04-23T14:32:40;18.30;99.90
12436;DHT22;6282;51.440;6.938;2023-04-23T14:35:08;18.30;99.90
12436;DHT22;6282;51.440;6.938;2023-04-23T14:37:35;18.10;99.90
12436;DHT22;6282;51.440;6.938;2023-04-23T14:40:04;18.00;99.90
12436;DHT22;6282;51.440;6.938;2023-04-23T14:42:31;18.10;99.90
12436;DHT22;6282;51.440;6.938;2023-04-23T14:44:58;17.80;99.90
12436;DHT22;6282;51.440;6.938;2023-04-23T14:47:27;17.70;99.90
12436;DHT22;6282;51.440;6.938;2023-04-23T14:49:54;18.20;99.90
12436;DHT22;6282;51.440;6.938;2023-04-23T14:52:22;17.90;99.90
12436;DHT22;6282;51.440;6.938;2023-04-23T14:54:49;17.80;99.90
12436;DHT22;6282;51.440;6.938;2023-04-23T14:57:19;17.90;99.90
12436;DHT22;6282;51.440;6.938;2023-04-23T14:59:46;17.80;99.90
12436;DHT22;6282;51.440;6.938;2023-04-23T15:02:13;17.70;99.90
12436;DHT22;6282;51.440;6.938;2023-04-23T15:04:40;17.60;99.90
12436;DHT22;6282;51.440;6.938;2023-04-23T15:07:08;17.70;99.90
12436;DHT22;6282;51.440;6.938;2023-04-23T15:09:35;17.50;99.90
12436;DHT22;6282;51.440;6.938;2023-04-23T15:12:05;17.70;99.90
12436;DHT22;6282;51.440;6.938;2023-04-23T15:14:36;17.60;99.90
12436;DHT22;6282;51.440;6.938;2023-04-23T15:17:03;17.60;99.90
12436;DHT22;6282;51.440;6.938;2023-04-23T15:19:30;17.50;99.90
12436;DHT22;6282;51.440;6.938;2023-04-23T15:21:57;17.40;99.90
12436;DHT22;6282;51.440;6.938;2023-04-23T15:24:24;17.30;99.90
12436;DHT22;6282;51.440;6.938;2023-04-23T15:26:50;17.20;99.90
12436;DHT22;6282;51.440;6.938;2023-04-23T15:29:19;17.10;99.90
12436;DHT22;6282;51.440;6.938;2023-04-23T15:31:47;17.00;99.90
12436;DHT22;6282;51.440;6.938;2023-04-23T15:34:16;17.10;99.90
12436;DHT22;6282;51.440;6.938;2023-04-23T15:36:42;16.90;99.90
12436;DHT22;6282;51.440;6.938;2023-04-23T15:39:09;16.80;99.90
12436;DHT22;6282;51.440;6.938;2023-04-23T15:41:36;16.70;99.90
12436;DHT22;6282;51.440;6.938;2023-04-23T15:44:03;16.30;99.90
12436;DHT22;6282;51.440;6.938;2023-04-23T15:46:30;15.90;99.90
12436;DHT22;6282;51.440;6.938;2023-04-23T15:48:58;15.60;99.90
12436;DHT22;6282;51.440;6.938;2023-04-23T15:51:25;15.50;99.90